sensor_id;sensor_type;location;lat;lon;timestamp;temperature;humidity
67050;DHT22;53955;52.442;13.284;2023-02-01T00:02:26;7.00;70.90
67050;DHT22;53955;52.442;13.284;2023-02-01T00:04:52;7.10;71.80
67050;DHT22;53955;52.442;13.284;2023-02-01T00:07:19;6.90;70.90
67050;DHT22;53955;52.442;13.284;2023-02-01T00:09:46;7.00;70.20
67050;DHT22;53955;52.442;13.284;2023-02-01T00:12:12;7.10;70.00
67050;DHT22;53955;52.442;13.284;2023-02-01T00:14:39;6.90;70.30
67050;DHT22;53955;52.442;13.284;2023-02-01T00:17:09;7.00;70.50
67050;DHT22;53955;52.442;13.284;2023-02-01T00:19:36;6.80;69.80
67050;DHT22;53955;52.442;13.284;2023-02-01T00:22:02;6.90;69.80
67050;DHT22;53955;52.442;13.284;2023-02-01T00:24:29;7.00;69.90
67050;DHT22;53955;52.442;13.284;2023-02-01T00:26:56;6.90;69.90
67050;DHT22;53955;52.442;13.284;2023-02-01T00:29:22;7.00;70.40
67050;DHT22;53955;52.442;13.284;2023-02-01T00:31:50;7.00;70.10
67050;DHT22;53955;52.442;13.284;2023-02-01T00:34:18;7.10;70.70
67050;DHT22;53955;52.442;13.284;2023-02-01T00:36:46;7.00;70.20
67050;DHT22;53955;52.442;13.284;2023-02-01T00:39:13;7.00;69.30
67050;DHT22;53955;52.442;13.284;2023-02-01T00:41:40;7.10;69.30
67050;DHT22;53955;52.442;13.284;2023-02-01T00:44:06;7.10;70.00
67050;DHT22;53955;52.442;13.284;2023-02-01T00:46:33;6.80;70.70
67050;DHT22;53955;52.442;13.284;2023-02-01T00:48:59;6.80;71.00
67050;DHT22;53955;52.442;13.284;2023-02-01T00:51:29;6.80;71.30
67050;DHT22;53955;52.442;13.284;2023-02-01T00:53:56;6.90;71.30
67050;DHT22;53955;52.442;13.284;2023-02-01T00:56:23;6.70;71.10
67050;DHT22;53955;52.442;13.284;2023-02-01T00:58:49;6.80;71.80
67050;DHT22;53955;52.442;13.284;2023-02-01T01:01:18;6.70;72.20
67050;DHT22;53955;52.442;13.284;2023-02-01T01:03:47;6.80;72.50
67050;DHT22;53955;52.442;13.284;2023-02-01T01:06:17;6.70;72.20
67050;DHT22;53955;52.442;13.284;2023-02-01T01:08:45;6.60;72.20
67050;DHT22;53955;52.442;13.284;2023-02-01T01:11:14;6.70;72.30
67050;DHT22;53955;52.442;13.284;2023-02-01T01:13:42;6.60;72.50
67050;DHT22;53955;52.442;13.284;2023-02-01T01:16:10;6.60;72.50
67050;DHT22;53955;52.442;13.284;2023-02-01T01:18:37;6.70;73.00
67050;DHT22;53955;52.442;13.284;2023-02-01T01:21:04;6.70;72.40
67050;DHT22;53955;52.442;13.284;2023-02-01T01:23:31;6.80;72.70
67050;DHT22;53955;52.442;13.284;2023-02-01T01:25:59;6.80;72.40
67050;DHT22;53955;52.442;13.284;2023-02-01T01:28:25;6.70;72.70
67050;DHT22;53955;52.442;13.284;2023-02-01T01:30:52;6.80;72.20
67050;DHT22;53955;52.442;13.284;2023-02-01T01:33:18;6.70;71.70
67050;DHT22;53955;52.442;13.284;2023-02-01T01:35:45;6.80;71.20
67050;DHT22;53955;52.442;13.284;2023-02-01T01:38:12;6.80;71.40
67050;DHT22;53955;52.442;13.284;2023-02-01T01:40:38;6.60;70.80
67050;DHT22;53955;52.442;13.284;2023-02-01T01:43:13;6.60;70.00
67050;DHT22;53955;52.442;13.284;2023-02-01T01:45:40;6.70;69.60
67050;DHT22;53955;52.442;13.284;2023-02-01T01:48:11;6.90;70.40
67050;DHT22;53955;52.442;13.284;2023-02-01T01:50:44;6.80;69.90
67050;DHT22;53955;52.442;13.284;2023-02-01T01:53:18;6.80;69.50
67050;DHT22;53955;52.442;13.284;2023-02-01T01:55:47;6.90;69.20
67050;DHT22;53955;52.442;13.284;2023-02-01T01:58:18;6.90;69.20
67050;DHT22;53955;52.442;13.284;2023-02-01T02:00:45;6.70;69.00
67050;DHT22;53955;52.442;13.284;2023-02-01T02:03:15;6.90;68.70
67050;DHT22;53955;52.442;13.284;2023-02-01T02:05:44;6.90;69.10
67050;DHT22;53955;52.442;13.284;2023-02-01T02:08:12;6.90;68.50
67050;DHT22;53955;52.442;13.284;2023-02-01T02:10:38;6.80;68.10
67050;DHT22;53955;52.442;13.284;2023-02-01T02:13:24;6.90;68.60
67050;DHT22;53955;52.442;13.284;2023-02-01T02:16:11;7.00;69.30
67050;DHT22;53955;52.442;13.284;2023-02-01T02:18:50;7.00;68.30
67050;DHT22;53955;52.442;13.284;2023-02-01T02:21:35;6.90;69.00
67050;DHT22;53955;52.442;13.284;2023-02-01T02:24:33;7.00;68.90
67050;DHT22;53955;52.442;13.284;2023-02-01T02:27:06;6.90;68.80
67050;DHT22;53955;52.442;13.284;2023-02-01T02:30:09;6.90;68.20
67050;DHT22;53955;52.442;13.284;2023-02-01T02:33:14;7.00;68.90
67050;DHT22;53955;52.442;13.284;2023-02-01T02:35:46;7.00;69.20
67050;DHT22;53955;52.442;13.284;2023-02-01T02:38:21;6.90;68.50
67050;DHT22;53955;52.442;13.284;2023-02-01T02:40:51;6.80;68.20
67050;DHT22;53955;52.442;13.284;2023-02-01T02:43:27;7.00;68.90
67050;DHT22;53955;52.442;13.284;2023-02-01T02:46:20;7.10;68.90
67050;DHT22;53955;52.442;13.284;2023-02-01T02:49:15;6.90;68.60
67050;DHT22;53955;52.442;13.284;2023-02-01T02:51:48;7.00;68.80
67050;DHT22;53955;52.442;13.284;2023-02-01T02:54:37;7.10;68.80
67050;DHT22;53955;52.442;13.284;2023-02-01T02:57:19;7.00;68.60
67050;DHT22;53955;52.442;13.284;2023-02-01T03:00:08;7.00;69.00
67050;DHT22;53955;52.442;13.284;2023-02-01T03:02:53;7.00;68.20
67050;DHT22;53955;52.442;13.284;2023-02-01T03:05:43;6.90;68.10
67050;DHT22;53955;52.442;13.284;2023-02-01T03:08:12;7.00;69.30
67050;DHT22;53955;52.442;13.284;2023-02-01T03:10:50;6.80;69.20
67050;DHT22;53955;52.442;13.284;2023-02-01T03:13:25;7.00;68.30
67050;DHT22;53955;52.442;13.284;2023-02-01T03:15:58;7.10;68.30
67050;DHT22;53955;52.442;13.284;2023-02-01T03:18:30;7.10;68.70
67050;DHT22;53955;52.442;13.284;2023-02-01T03:21:02;7.10;68.50
67050;DHT22;53955;52.442;13.284;2023-02-01T03:23:33;7.00;68.10
67050;DHT22;53955;52.442;13.284;2023-02-01T03:26:04;7.10;68.00
67050;DHT22;53955;52.442;13.284;2023-02-01T03:28:33;7.20;68.50
67050;DHT22;53955;52.442;13.284;2023-02-01T03:31:01;7.30;68.00
67050;DHT22;53955;52.442;13.284;2023-02-01T03:33:29;7.10;68.50
67050;DHT22;53955;52.442;13.284;2023-02-01T03:36:05;7.30;67.30
67050;DHT22;53955;52.442;13.284;2023-02-01T03:38:38;7.20;68.80
67050;DHT22;53955;52.442;13.284;2023-02-01T03:41:12;7.10;67.60
67050;DHT22;53955;52.442;13.284;2023-02-01T03:43:47;7.10;68.10
67050;DHT22;53955;52.442;13.284;2023-02-01T03:46:20;7.10;68.70
67050;DHT22;53955;52.442;13.284;2023-02-01T03:48:50;7.20;67.90
67050;DHT22;53955;52.442;13.284;2023-02-01T03:51:20;7.20;68.50
67050;DHT22;53955;52.442;13.284;2023-02-01T03:53:48;7.10;68.50
67050;DHT22;53955;52.442;13.284;2023-02-01T03:56:16;7.30;67.70
67050;DHT22;53955;52.442;13.284;2023-02-01T03:58:44;7.20;66.90
67050;DHT22;53955;52.442;13.284;2023-02-01T04:01:24;7.20;68.40
67050;DHT22;53955;52.442;13.284;2023-02-01T04:03:50;7.30;68.00
67050;DHT22;53955;52.442;13.284;2023-02-01T04:06:18;7.20;68.30
67050;DHT22;53955;52.442;13.284;2023-02-01T04:08:45;7.20;68.50
67050;DHT22;53955;52.442;13.284;2023-02-01T04:11:11;7.30;67.90
67050;DHT22;53955;52.442;13.284;2023-02-01T04:13:38;7.40;67.40
67050;DHT22;53955;52.442;13.284;2023-02-01T04:16:05;7.40;68.00
67050;DHT22;53955;52.442;13.284;2023-02-01T04:18:32;7.30;67.40
67050;DHT22;53955;52.442;13.284;2023-02-01T04:20:58;7.40;67.50
67050;DHT22;53955;52.442;13.284;2023-02-01T04:23:27;7.30;66.90
67050;DHT22;53955;52.442;13.284;2023-02-01T04:25:58;7.20;67.20
67050;DHT22;53955;52.442;13.284;2023-02-01T04:28:25;7.40;68.20
67050;DHT22;53955;52.442;13.284;2023-02-01T04:30:52;7.50;67.80
67050;DHT22;53955;52.442;13.284;2023-02-01T04:33:18;7.40;67.00
67050;DHT22;53955;52.442;13.284;2023-02-01T04:35:45;7.60;66.50
67050;DHT22;53955;52.442;13.284;2023-02-01T04:38:11;7.60;66.20
67050;DHT22;53955;52.442;13.284;2023-02-01T04:40:39;7.50;66.30
67050;DHT22;53955;52.442;13.284;2023-02-01T04:43:06;7.60;66.70
67050;DHT22;53955;52.442;13.284;2023-02-01T04:45:33;7.60;67.70
67050;DHT22;53955;52.442;13.284;2023-02-01T04:48:00;7.70;66.50
67050;DHT22;53955;52.442;13.284;2023-02-01T04:50:26;7.50;67.40
67050;DHT22;53955;52.442;13.284;2023-02-01T04:52:53;7.60;66.50
67050;DHT22;53955;52.442;13.284;2023-02-01T04:55:19;7.40;66.80
67050;DHT22;53955;52.442;13.284;2023-02-01T04:57:47;7.60;66.90
67050;DHT22;53955;52.442;13.284;2023-02-01T05:00:15;7.60;66.90
67050;DHT22;53955;52.442;13.284;2023-02-01T05:02:41;7.60;67.10
67050;DHT22;53955;52.442;13.284;2023-02-01T05:05:08;7.70;66.70
67050;DHT22;53955;52.442;13.284;2023-02-01T05:07:35;7.60;66.00
67050;DHT22;53955;52.442;13.284;2023-02-01T05:10:01;7.60;66.40
67050;DHT22;53955;52.442;13.284;2023-02-01T05:12:29;7.70;66.30
67050;DHT22;53955;52.442;13.284;2023-02-01T05:15:14;7.60;66.30
67050;DHT22;53955;52.442;13.284;2023-02-01T05:17:41;7.60;65.90
67050;DHT22;53955;52.442;13.284;2023-02-01T05:20:09;7.60;66.60
67050;DHT22;53955;52.442;13.284;2023-02-01T05:22:36;7.50;66.40
67050;DHT22;53955;52.442;13.284;2023-02-01T05:25:02;7.70;66.20
67050;DHT22;53955;52.442;13.284;2023-02-01T05:27:29;7.60;66.40
67050;DHT22;53955;52.442;13.284;2023-02-01T05:29:56;7.70;65.80
67050;DHT22;53955;52.442;13.284;2023-02-01T05:32:24;7.80;66.30
67050;DHT22;53955;52.442;13.284;2023-02-01T05:34:50;7.70;65.40
67050;DHT22;53955;52.442;13.284;2023-02-01T05:37:17;7.80;67.10
67050;DHT22;53955;52.442;13.284;2023-02-01T05:39:43;7.60;66.00
67050;DHT22;53955;52.442;13.284;2023-02-01T05:42:10;7.60;66.10
67050;DHT22;53955;52.442;13.284;2023-02-01T05:44:36;7.60;66.00
67050;DHT22;53955;52.442;13.284;2023-02-01T05:47:03;7.70;66.10
67050;DHT22;53955;52.442;13.284;2023-02-01T05:49:31;7.80;66.40
67050;DHT22;53955;52.442;13.284;2023-02-01T05:51:58;7.60;66.20
67050;DHT22;53955;52.442;13.284;2023-02-01T05:54:24;7.80;66.70
67050;DHT22;53955;52.442;13.284;2023-02-01T05:56:51;7.70;66.30
67050;DHT22;53955;52.442;13.284;2023-02-01T05:59:18;7.70;66.40
67050;DHT22;53955;52.442;13.284;2023-02-01T06:01:44;7.70;67.40
67050;DHT22;53955;52.442;13.284;2023-02-01T06:04:11;7.60;67.60
67050;DHT22;53955;52.442;13.284;2023-02-01T06:06:39;7.60;67.30
67050;DHT22;53955;52.442;13.284;2023-02-01T06:09:06;7.60;67.40
67050;DHT22;53955;52.442;13.284;2023-02-01T06:11:32;7.50;68.30
67050;DHT22;53955;52.442;13.284;2023-02-01T06:13:59;7.60;68.80
67050;DHT22;53955;52.442;13.284;2023-02-01T06:16:26;7.50;68.40
67050;DHT22;53955;52.442;13.284;2023-02-01T06:18:52;7.50;68.80
67050;DHT22;53955;52.442;13.284;2023-02-01T06:21:19;7.50;68.20
67050;DHT22;53955;52.442;13.284;2023-02-01T06:23:51;7.60;68.40
67050;DHT22;53955;52.442;13.284;2023-02-01T06:26:17;7.50;68.10
67050;DHT22;53955;52.442;13.284;2023-02-01T06:28:44;7.60;68.50
67050;DHT22;53955;52.442;13.284;2023-02-01T06:31:10;7.50;69.00
67050;DHT22;53955;52.442;13.284;2023-02-01T06:33:37;7.70;68.30
67050;DHT22;53955;52.442;13.284;2023-02-01T06:36:06;7.50;68.10
67050;DHT22;53955;52.442;13.284;2023-02-01T06:38:33;7.70;67.20
67050;DHT22;53955;52.442;13.284;2023-02-01T06:41:01;7.70;68.00
67050;DHT22;53955;52.442;13.284;2023-02-01T06:43:28;7.60;68.50
67050;DHT22;53955;52.442;13.284;2023-02-01T06:45:59;7.70;68.90
67050;DHT22;53955;52.442;13.284;2023-02-01T06:48:26;7.60;68.10
67050;DHT22;53955;52.442;13.284;2023-02-01T06:50:53;7.70;68.70
67050;DHT22;53955;52.442;13.284;2023-02-01T06:53:19;7.60;68.40
67050;DHT22;53955;52.442;13.284;2023-02-01T06:55:52;7.70;68.70
67050;DHT22;53955;52.442;13.284;2023-02-01T06:58:19;7.60;68.80
67050;DHT22;53955;52.442;13.284;2023-02-01T07:00:46;7.60;68.10
67050;DHT22;53955;52.442;13.284;2023-02-01T07:03:12;7.60;67.50
67050;DHT22;53955;52.442;13.284;2023-02-01T07:05:39;7.60;66.90
67050;DHT22;53955;52.442;13.284;2023-02-01T07:08:06;7.70;66.20
67050;DHT22;53955;52.442;13.284;2023-02-01T07:10:33;7.70;66.50
67050;DHT22;53955;52.442;13.284;2023-02-01T07:13:00;7.60;66.70
67050;DHT22;53955;52.442;13.284;2023-02-01T07:15:28;7.60;66.60
67050;DHT22;53955;52.442;13.284;2023-02-01T07:17:55;7.60;68.00
67050;DHT22;53955;52.442;13.284;2023-02-01T07:20:22;7.60;68.00
67050;DHT22;53955;52.442;13.284;2023-02-01T07:22:54;7.60;68.10
67050;DHT22;53955;52.442;13.284;2023-02-01T07:25:21;7.50;68.60
67050;DHT22;53955;52.442;13.284;2023-02-01T07:27:48;7.70;69.30
67050;DHT22;53955;52.442;13.284;2023-02-01T07:30:14;7.50;69.60
67050;DHT22;53955;52.442;13.284;2023-02-01T07:32:42;7.50;69.50
67050;DHT22;53955;52.442;13.284;2023-02-01T07:35:09;7.60;69.60
67050;DHT22;53955;52.442;13.284;2023-02-01T07:37:35;7.60;69.70
67050;DHT22;53955;52.442;13.284;2023-02-01T07:40:03;7.60;70.00
67050;DHT22;53955;52.442;13.284;2023-02-01T07:42:29;7.60;70.50
67050;DHT22;53955;52.442;13.284;2023-02-01T07:44:56;7.50;72.20
67050;DHT22;53955;52.442;13.284;2023-02-01T07:47:22;7.50;73.00
67050;DHT22;53955;52.442;13.284;2023-02-01T07:49:50;7.50;73.10
67050;DHT22;53955;52.442;13.284;2023-02-01T07:52:17;7.50;74.00
67050;DHT22;53955;52.442;13.284;2023-02-01T07:54:43;7.20;74.70
67050;DHT22;53955;52.442;13.284;2023-02-01T07:57:10;7.40;76.10
67050;DHT22;53955;52.442;13.284;2023-02-01T07:59:38;7.20;76.20
67050;DHT22;53955;52.442;13.284;2023-02-01T08:02:25;7.20;76.90
67050;DHT22;53955;52.442;13.284;2023-02-01T08:04:52;7.10;76.90
67050;DHT22;53955;52.442;13.284;2023-02-01T08:07:18;6.90;77.50
67050;DHT22;53955;52.442;13.284;2023-02-01T08:09:45;7.10;77.80
67050;DHT22;53955;52.442;13.284;2023-02-01T08:12:12;6.90;78.10
67050;DHT22;53955;52.442;13.284;2023-02-01T08:14:38;7.00;78.20
67050;DHT22;53955;52.442;13.284;2023-02-01T08:17:06;6.90;78.20
67050;DHT22;53955;52.442;13.284;2023-02-01T08:19:32;6.90;78.90
67050;DHT22;53955;52.442;13.284;2023-02-01T08:22:00;6.80;78.80
67050;DHT22;53955;52.442;13.284;2023-02-01T08:24:32;6.90;79.40
67050;DHT22;53955;52.442;13.284;2023-02-01T08:27:00;6.90;78.80
67050;DHT22;53955;52.442;13.284;2023-02-01T08:29:26;6.80;79.20
67050;DHT22;53955;52.442;13.284;2023-02-01T08:31:53;6.80;79.50
67050;DHT22;53955;52.442;13.284;2023-02-01T08:34:20;6.80;79.90
67050;DHT22;53955;52.442;13.284;2023-02-01T08:36:47;6.80;79.90
67050;DHT22;53955;52.442;13.284;2023-02-01T08:39:15;6.80;79.90
67050;DHT22;53955;52.442;13.284;2023-02-01T08:41:41;6.90;80.00
67050;DHT22;53955;52.442;13.284;2023-02-01T08:44:28;6.80;80.00
67050;DHT22;53955;52.442;13.284;2023-02-01T08:46:54;6.90;80.00
67050;DHT22;53955;52.442;13.284;2023-02-01T08:49:21;6.80;80.30
67050;DHT22;53955;52.442;13.284;2023-02-01T08:51:48;6.90;80.30
67050;DHT22;53955;52.442;13.284;2023-02-01T08:54:15;6.80;80.20
67050;DHT22;53955;52.442;13.284;2023-02-01T08:56:42;6.70;80.60
67050;DHT22;53955;52.442;13.284;2023-02-01T08:59:09;6.70;80.00
67050;DHT22;53955;52.442;13.284;2023-02-01T09:01:35;6.60;80.60
67050;DHT22;53955;52.442;13.284;2023-02-01T09:04:02;6.60;80.60
67050;DHT22;53955;52.442;13.284;2023-02-01T09:06:28;6.60;80.60
67050;DHT22;53955;52.442;13.284;2023-02-01T09:08:56;6.60;80.60
67050;DHT22;53955;52.442;13.284;2023-02-01T09:11:24;6.60;80.40
67050;DHT22;53955;52.442;13.284;2023-02-01T09:13:51;6.60;80.80
67050;DHT22;53955;52.442;13.284;2023-02-01T09:16:17;6.60;80.90
67050;DHT22;53955;52.442;13.284;2023-02-01T09:18:44;6.70;80.70
67050;DHT22;53955;52.442;13.284;2023-02-01T09:21:10;6.80;80.00
67050;DHT22;53955;52.442;13.284;2023-02-01T09:23:37;6.80;80.50
67050;DHT22;53955;52.442;13.284;2023-02-01T09:26:04;6.70;79.70
67050;DHT22;53955;52.442;13.284;2023-02-01T09:28:33;6.80;79.90
67050;DHT22;53955;52.442;13.284;2023-02-01T09:31:00;6.80;79.60
67050;DHT22;53955;52.442;13.284;2023-02-01T09:33:28;6.80;79.60
67050;DHT22;53955;52.442;13.284;2023-02-01T09:35:56;6.80;79.50
67050;DHT22;53955;52.442;13.284;2023-02-01T09:38:22;7.00;79.20
67050;DHT22;53955;52.442;13.284;2023-02-01T09:40:50;6.90;79.40
67050;DHT22;53955;52.442;13.284;2023-02-01T09:43:24;6.80;78.70
67050;DHT22;53955;52.442;13.284;2023-02-01T09:46:03;6.90;79.40
67050;DHT22;53955;52.442;13.284;2023-02-01T09:48:36;7.00;79.30
67050;DHT22;53955;52.442;13.284;2023-02-01T09:51:07;6.90;79.30
67050;DHT22;53955;52.442;13.284;2023-02-01T09:53:40;7.10;79.20
67050;DHT22;53955;52.442;13.284;2023-02-01T09:56:12;7.00;79.30
67050;DHT22;53955;52.442;13.284;2023-02-01T09:58:42;7.00;78.90
67050;DHT22;53955;52.442;13.284;2023-02-01T10:01:15;7.00;79.10
67050;DHT22;53955;52.442;13.284;2023-02-01T10:03:42;6.90;79.10
67050;DHT22;53955;52.442;13.284;2023-02-01T10:06:24;6.90;79.40
67050;DHT22;53955;52.442;13.284;2023-02-01T10:09:05;6.90;79.40
67050;DHT22;53955;52.442;13.284;2023-02-01T10:11:42;6.90;79.60
67050;DHT22;53955;52.442;13.284;2023-02-01T10:14:41;6.90;80.10
67050;DHT22;53955;52.442;13.284;2023-02-01T10:17:23;7.00;79.80
67050;DHT22;53955;52.442;13.284;2023-02-01T10:20:02;6.90;79.50
67050;DHT22;53955;52.442;13.284;2023-02-01T10:22:39;7.00;79.60
67050;DHT22;53955;52.442;13.284;2023-02-01T10:25:13;6.90;79.20
67050;DHT22;53955;52.442;13.284;2023-02-01T10:27:41;7.20;79.20
67050;DHT22;53955;52.442;13.284;2023-02-01T10:30:16;7.10;79.30
67050;DHT22;53955;52.442;13.284;2023-02-01T10:32:47;7.10;79.20
67050;DHT22;53955;52.442;13.284;2023-02-01T10:35:17;7.20;79.10
67050;DHT22;53955;52.442;13.284;2023-02-01T10:37:45;7.20;78.70
67050;DHT22;53955;52.442;13.284;2023-02-01T10:40:16;7.30;78.70
67050;DHT22;53955;52.442;13.284;2023-02-01T10:42:45;7.00;79.30
67050;DHT22;53955;52.442;13.284;2023-02-01T10:45:15;7.20;79.40
67050;DHT22;53955;52.442;13.284;2023-02-01T10:47:45;7.20;79.90
67050;DHT22;53955;52.442;13.284;2023-02-01T10:50:18;7.30;79.70
67050;DHT22;53955;52.442;13.284;2023-02-01T10:52:50;7.20;79.70
67050;DHT22;53955;52.442;13.284;2023-02-01T10:55:46;7.10;79.40
67050;DHT22;53955;52.442;13.284;2023-02-01T10:58:16;7.30;79.60
67050;DHT22;53955;52.442;13.284;2023-02-01T11:00:45;7.20;79.40
67050;DHT22;53955;52.442;13.284;2023-02-01T11:03:39;7.20;79.50
67050;DHT22;53955;52.442;13.284;2023-02-01T11:06:18;7.30;79.50
67050;DHT22;53955;52.442;13.284;2023-02-01T11:08:48;7.40;79.40
67050;DHT22;53955;52.442;13.284;2023-02-01T11:11:15;7.60;78.70
67050;DHT22;53955;52.442;13.284;2023-02-01T11:13:42;7.80;78.60
67050;DHT22;53955;52.442;13.284;2023-02-01T11:16:12;7.90;78.10
67050;DHT22;53955;52.442;13.284;2023-02-01T11:18:41;7.80;78.20
67050;DHT22;53955;52.442;13.284;2023-02-01T11:21:08;7.90;77.80
67050;DHT22;53955;52.442;13.284;2023-02-01T11:23:40;7.90;77.70
67050;DHT22;53955;52.442;13.284;2023-02-01T11:26:11;8.00;77.80
67050;DHT22;53955;52.442;13.284;2023-02-01T11:28:39;7.90;77.40
67050;DHT22;53955;52.442;13.284;2023-02-01T11:31:09;8.00;77.50
67050;DHT22;53955;52.442;13.284;2023-02-01T11:33:37;8.00;76.90
67050;DHT22;53955;52.442;13.284;2023-02-01T11:36:09;8.10;76.80
67050;DHT22;53955;52.442;13.284;2023-02-01T11:38:37;8.30;76.60
67050;DHT22;53955;52.442;13.284;2023-02-01T11:41:12;8.40;76.50
67050;DHT22;53955;52.442;13.284;2023-02-01T11:43:51;8.40;75.90
67050;DHT22;53955;52.442;13.284;2023-02-01T11:46:18;8.40;74.50
67050;DHT22;53955;52.442;13.284;2023-02-01T11:48:50;8.40;74.30
67050;DHT22;53955;52.442;13.284;2023-02-01T11:51:21;8.30;74.10
67050;DHT22;53955;52.442;13.284;2023-02-01T11:54:02;8.30;74.20
67050;DHT22;53955;52.442;13.284;2023-02-01T11:56:35;8.30;73.90
67050;DHT22;53955;52.442;13.284;2023-02-01T11:59:11;8.30;74.30
67050;DHT22;53955;52.442;13.284;2023-02-01T12:01:55;8.30;73.70
67050;DHT22;53955;52.442;13.284;2023-02-01T12:04:45;8.20;72.90
67050;DHT22;53955;52.442;13.284;2023-02-01T12:07:22;8.30;73.30
67050;DHT22;53955;52.442;13.284;2023-02-01T12:10:01;8.40;72.50
67050;DHT22;53955;52.442;13.284;2023-02-01T12:12:34;8.50;72.90
67050;DHT22;53955;52.442;13.284;2023-02-01T12:15:23;8.50;72.50
67050;DHT22;53955;52.442;13.284;2023-02-01T12:18:12;8.60;71.90
67050;DHT22;53955;52.442;13.284;2023-02-01T12:21:02;8.50;72.50
67050;DHT22;53955;52.442;13.284;2023-02-01T12:23:46;8.80;71.40
67050;DHT22;53955;52.442;13.284;2023-02-01T12:26:44;8.80;71.10
67050;DHT22;53955;52.442;13.284;2023-02-01T12:29:22;8.80;70.90
67050;DHT22;53955;52.442;13.284;2023-02-01T12:32:01;8.90;70.10
67050;DHT22;53955;52.442;13.284;2023-02-01T12:34:55;8.90;70.50
67050;DHT22;53955;52.442;13.284;2023-02-01T12:37:38;8.80;69.30
67050;DHT22;53955;52.442;13.284;2023-02-01T12:40:20;8.90;69.90
67050;DHT22;53955;52.442;13.284;2023-02-01T12:42:53;8.90;70.50
67050;DHT22;53955;52.442;13.284;2023-02-01T12:45:29;8.80;69.70
67050;DHT22;53955;52.442;13.284;2023-02-01T12:48:01;8.80;69.30
67050;DHT22;53955;52.442;13.284;2023-02-01T12:50:36;8.70;69.70
67050;DHT22;53955;52.442;13.284;2023-02-01T12:53:09;8.70;68.70
67050;DHT22;53955;52.442;13.284;2023-02-01T12:55:43;8.70;68.70
67050;DHT22;53955;52.442;13.284;2023-02-01T12:58:17;8.70;68.70
67050;DHT22;53955;52.442;13.284;2023-02-01T13:00:47;8.70;67.50
67050;DHT22;53955;52.442;13.284;2023-02-01T13:03:26;8.70;67.50
67050;DHT22;53955;52.442;13.284;2023-02-01T13:06:00;8.70;67.80
67050;DHT22;53955;52.442;13.284;2023-02-01T13:08:39;8.60;67.80
67050;DHT22;53955;52.442;13.284;2023-02-01T13:11:11;8.70;68.50
67050;DHT22;53955;52.442;13.284;2023-02-01T13:13:46;8.70;68.10
67050;DHT22;53955;52.442;13.284;2023-02-01T13:16:16;8.70;68.10
67050;DHT22;53955;52.442;13.284;2023-02-01T13:18:50;8.80;67.90
67050;DHT22;53955;52.442;13.284;2023-02-01T13:21:21;8.80;67.60
67050;DHT22;53955;52.442;13.284;2023-02-01T13:23:50;8.90;66.70
67050;DHT22;53955;52.442;13.284;2023-02-01T13:26:19;8.80;67.00
67050;DHT22;53955;52.442;13.284;2023-02-01T13:28:47;8.80;67.70
67050;DHT22;53955;52.442;13.284;2023-02-01T13:31:29;8.80;68.40
67050;DHT22;53955;52.442;13.284;2023-02-01T13:37:09;8.70;67.80
67050;DHT22;53955;52.442;13.284;2023-02-01T13:40:05;8.80;68.20
67050;DHT22;53955;52.442;13.284;2023-02-01T13:42:44;8.70;67.20
67050;DHT22;53955;52.442;13.284;2023-02-01T13:45:15;8.70;67.50
67050;DHT22;53955;52.442;13.284;2023-02-01T13:47:45;8.70;68.20
67050;DHT22;53955;52.442;13.284;2023-02-01T13:50:20;8.70;67.70
67050;DHT22;53955;52.442;13.284;2023-02-01T13:52:52;8.70;68.30
67050;DHT22;53955;52.442;13.284;2023-02-01T13:55:27;8.70;68.30
67050;DHT22;53955;52.442;13.284;2023-02-01T13:58:13;8.70;67.90
67050;DHT22;53955;52.442;13.284;2023-02-01T14:00:42;8.70;67.70
67050;DHT22;53955;52.442;13.284;2023-02-01T14:03:14;8.70;67.40
67050;DHT22;53955;52.442;13.284;2023-02-01T14:06:05;8.80;67.70
67050;DHT22;53955;52.442;13.284;2023-02-01T14:08:43;8.80;67.50
67050;DHT22;53955;52.442;13.284;2023-02-01T14:11:33;8.80;68.20
67050;DHT22;53955;52.442;13.284;2023-02-01T14:17:36;8.80;69.00
67050;DHT22;53955;52.442;13.284;2023-02-01T14:23:22;8.80;68.90
67050;DHT22;53955;52.442;13.284;2023-02-01T14:28:58;8.70;69.60
67050;DHT22;53955;52.442;13.284;2023-02-01T14:31:39;8.80;69.30
67050;DHT22;53955;52.442;13.284;2023-02-01T14:34:16;8.60;68.20
67050;DHT22;53955;52.442;13.284;2023-02-01T14:36:52;8.70;68.40
67050;DHT22;53955;52.442;13.284;2023-02-01T14:39:21;8.70;68.20
67050;DHT22;53955;52.442;13.284;2023-02-01T14:41:54;8.70;66.20
67050;DHT22;53955;52.442;13.284;2023-02-01T14:44:30;8.70;66.10
67050;DHT22;53955;52.442;13.284;2023-02-01T14:47:30;8.70;67.80
67050;DHT22;53955;52.442;13.284;2023-02-01T14:50:13;8.70;66.70
67050;DHT22;53955;52.442;13.284;2023-02-01T14:52:45;8.70;65.40
67050;DHT22;53955;52.442;13.284;2023-02-01T14:55:16;8.60;64.80
67050;DHT22;53955;52.442;13.284;2023-02-01T14:57:47;8.60;64.40
67050;DHT22;53955;52.442;13.284;2023-02-01T15:00:17;8.60;64.40
67050;DHT22;53955;52.442;13.284;2023-02-01T15:02:44;8.60;63.20
67050;DHT22;53955;52.442;13.284;2023-02-01T15:05:24;8.40;63.40
67050;DHT22;53955;52.442;13.284;2023-02-01T15:07:51;8.40;66.20
67050;DHT22;53955;52.442;13.284;2023-02-01T15:10:18;8.40;69.00
67050;DHT22;53955;52.442;13.284;2023-02-01T15:12:45;8.10;70.10
67050;DHT22;53955;52.442;13.284;2023-02-01T15:15:15;8.10;71.40
67050;DHT22;53955;52.442;13.284;2023-02-01T15:17:48;8.10;72.30
67050;DHT22;53955;52.442;13.284;2023-02-01T15:20:16;8.00;74.00
67050;DHT22;53955;52.442;13.284;2023-02-01T15:22:54;7.90;74.50
67050;DHT22;53955;52.442;13.284;2023-02-01T15:25:23;7.90;75.20
67050;DHT22;53955;52.442;13.284;2023-02-01T15:27:49;7.80;75.60
67050;DHT22;53955;52.442;13.284;2023-02-01T15:30:18;7.70;75.90
67050;DHT22;53955;52.442;13.284;2023-02-01T15:32:45;7.70;77.50
67050;DHT22;53955;52.442;13.284;2023-02-01T15:35:35;7.60;77.70
67050;DHT22;53955;52.442;13.284;2023-02-01T15:38:38;7.50;77.30
67050;DHT22;53955;52.442;13.284;2023-02-01T15:41:12;7.50;77.70
67050;DHT22;53955;52.442;13.284;2023-02-01T15:43:41;7.40;77.70
67050;DHT22;53955;52.442;13.284;2023-02-01T15:46:11;7.40;77.90
67050;DHT22;53955;52.442;13.284;2023-02-01T15:48:47;7.30;78.40
67050;DHT22;53955;52.442;13.284;2023-02-01T15:51:17;7.50;78.40
67050;DHT22;53955;52.442;13.284;2023-02-01T15:53:48;7.30;78.40
67050;DHT22;53955;52.442;13.284;2023-02-01T15:56:16;8.50;86.00
67050;DHT22;53955;52.442;13.284;2023-02-01T15:58:53;8.30;78.80
67050;DHT22;53955;52.442;13.284;2023-02-01T16:01:20;8.20;78.00
67050;DHT22;53955;52.442;13.284;2023-02-01T16:03:48;7.90;76.70
67050;DHT22;53955;52.442;13.284;2023-02-01T16:06:28;7.80;76.80
67050;DHT22;53955;52.442;13.284;2023-02-01T16:09:02;7.70;75.80
67050;DHT22;53955;52.442;13.284;2023-02-01T16:11:30;7.50;76.80